Аэропорт: Рощино. Тюмень

ICAO: USTR

METAR:
2021-10-23 02:30:00
USTR 230230Z 24007MPS 9000 SCT007 OVC042 07/06 Q0998 R21/290060 R30/290060 TEMPO 23015MPS 1000 RA VV003
METAR:
2021-10-22 22:55:00
TAF USTR 222255Z 2300/2324 23007G18MPS 6000 -SHRA BKN005 OVC011CB TEMPO 2300/2303 1000 RA BR VV003 BECMG 2304/2306 9999 NSW BKN016CB